Time;durP1;ratioP1;P1;durP2;ratioP2;P2;SDS_P1;SDS_P2;PMS_P1;PMS_P2;Temp;Humidity;BMP_temperature;BMP_pressure;BME280_temperature;BME280_humidity;BME280_pressure;Samples;Min_cycle;Max_cycle;Signal;HPM_P1;HPM_P2
2022/01/03 00:01:17;;;;;;;0.45;0.45;;;;;;;6.30;100.00;98755.03;5064107;28;20036;-64
2022/01/03 00:03:43;;;;;;;0.40;0.40;;;;;;;6.31;100.00;98748.97;5064337;28;20108;-65
2022/01/03 00:06:10;;;;;;;0.40;0.40;;;;;;;6.29;100.00;98753.31;5064176;28;20527;-64
2022/01/03 00:08:35;;;;;;;0.40;0.40;;;;;;;6.31;100.00;98754.13;5064398;28;20060;-65
2022/01/03 00:11:01;;;;;;;0.40;0.40;;;;;;;6.29;100.00;98750.72;5063625;28;20048;-65
2022/01/03 00:13:26;;;;;;;0.40;0.40;;;;;;;6.29;100.00;98748.16;5062679;28;20032;-65
2022/01/03 00:15:55;;;;;;;0.40;0.40;;;;;;;6.27;100.00;98762.81;5063895;28;20028;-64
2022/01/03 00:18:22;;;;;;;0.40;0.40;;;;;;;6.26;100.00;98750.78;5063960;28;20052;-65
2022/01/03 00:20:58;;;;;;;0.40;0.40;;;;;;;6.25;100.00;98753.38;5063658;28;20051;-63
2022/01/03 00:23:29;;;;;;;0.40;0.40;;;;;;;6.26;100.00;98747.38;5063982;28;20021;-64
2022/01/03 00:26:00;;;;;;;0.40;0.40;;;;;;;6.24;100.00;98746.53;5062382;28;20017;-63
2022/01/03 00:28:38;;;;;;;0.40;0.40;;;;;;;6.19;100.00;98736.31;5063701;28;20021;-64
2022/01/03 00:31:04;;;;;;;0.40;0.40;;;;;;;6.19;100.00;98732.03;5061965;28;20164;-64
2022/01/03 00:33:31;;;;;;;0.40;0.40;;;;;;;6.16;100.00;98737.22;5063835;28;20321;-63
2022/01/03 00:35:59;;;;;;;0.40;0.40;;;;;;;6.17;100.00;98738.91;5063542;28;20021;-62
2022/01/03 00:38:32;;;;;;;0.40;0.40;;;;;;;6.16;100.00;98737.22;5063827;28;20094;-64
2022/01/03 00:41:02;;;;;;;0.40;0.40;;;;;;;6.17;100.00;98740.63;5063500;28;20399;-63
2022/01/03 00:43:28;;;;;;;0.40;0.40;;;;;;;6.16;100.00;98731.22;5063578;28;20505;-64
2022/01/03 00:45:55;;;;;;;0.40;0.40;;;;;;;6.15;100.00;98726.94;5063104;28;20036;-64
2022/01/03 00:48:22;;;;;;;0.40;0.40;;;;;;;6.14;100.00;98722.66;5063441;28;20039;-64
2022/01/03 00:50:47;;;;;;;0.40;0.40;;;;;;;6.15;100.00;98717.47;5063355;28;20033;-64
2022/01/03 00:53:14;;;;;;;0.40;0.40;;;;;;;6.15;100.00;98712.31;5063450;28;20031;-65
2022/01/03 00:56:00;;;;;;;0.40;0.40;;;;;;;6.15;100.00;98712.31;5063354;28;20025;-64
2022/01/03 00:58:29;;;;;;;0.40;0.40;;;;;;;6.14;100.00;98707.19;5063448;28;20021;-64
2022/01/03 01:00:56;;;;;;;0.40;0.40;;;;;;;6.13;100.00;98697.78;5062958;28;20045;-63
2022/01/03 01:03:32;;;;;;;0.40;0.40;;;;;;;6.09;100.00;98696.97;5063235;28;20100;-64
2022/01/03 01:06:01;;;;;;;0.40;0.40;;;;;;;6.06;100.00;98692.72;5063305;28;20088;-64
2022/01/03 01:08:28;;;;;;;0.40;0.40;;;;;;;6.04;100.00;98699.63;5063220;28;20029;-64
2022/01/03 01:10:56;;;;;;;0.40;0.40;;;;;;;6.05;100.00;98700.50;5062979;28;20129;-63
2022/01/03 01:13:21;;;;;;;0.40;0.40;;;;;;;6.01;100.00;98697.06;5063264;28;20021;-64
2022/01/03 01:15:47;;;;;;;0.40;0.40;;;;;;;6.02;100.00;98693.63;5063049;28;20043;-63
2022/01/03 01:18:13;;;;;;;0.40;0.40;;;;;;;6.01;100.00;98691.91;5063231;28;20117;-64
2022/01/03 01:20:39;;;;;;;0.40;0.40;;;;;;;5.96;99.97;98686.00;5062947;28;20041;-65
2022/01/03 01:23:07;;;;;;;0.40;0.40;;;;;;;5.92;100.00;98689.50;5062945;28;20033;-64
2022/01/03 01:28:08;;;;;;;0.40;0.40;;;;;;;5.86;100.00;98689.63;5063072;28;20024;-64
2022/01/03 01:30:34;;;;;;;0.40;0.40;;;;;;;5.84;99.94;98684.50;5062666;28;20542;-65
2022/01/03 01:33:14;;;;;;;0.40;0.40;;;;;;;5.81;100.00;98693.09;5063054;28;20104;-64
2022/01/03 01:35:50;;;;;;;0.35;0.35;;;;;;;5.81;100.00;98697.41;5063063;28;20021;-64
2022/01/03 01:38:18;;;;;;;0.40;0.40;;;;;;;5.79;100.00;98688.88;5062987;28;20029;-66
2022/01/03 01:40:47;;;;;;;0.40;0.40;;;;;;;5.68;100.00;98671.88;5062914;28;20021;-64
2022/01/03 01:43:15;;;;;;;0.40;0.40;;;;;;;5.76;100.00;98684.63;5062788;28;20489;-65
2022/01/03 01:45:46;;;;;;;0.40;0.40;;;;;;;5.73;100.00;98681.25;5062868;28;20371;-64
2022/01/03 01:48:12;;;;;;;0.40;0.40;;;;;;;5.72;100.00;98680.38;5062828;28;20332;-64
2022/01/03 01:50:40;;;;;;;0.40;0.40;;;;;;;5.70;100.00;98682.16;5062554;28;20072;-64
2022/01/03 01:53:07;;;;;;;0.40;0.40;;;;;;;5.70;100.00;98682.97;5062539;28;20021;-64
2022/01/03 01:55:32;;;;;;;0.40;0.40;;;;;;;5.68;100.00;98682.19;5062835;28;20100;-64
2022/01/03 01:58:11;;;;;;;0.40;0.40;;;;;;;5.67;100.00;98675.31;5064522;28;20420;-64
2022/01/03 02:00:38;;;;;;;0.40;0.40;;;;;;;5.65;100.00;98677.06;5066309;28;20488;-64
2022/01/03 02:03:24;;;;;;;0.40;0.40;;;;;;;5.65;100.00;98674.50;5066457;28;20071;-63
2022/01/03 02:06:29;;;;;;;0.40;0.40;;;;;;;5.67;100.00;98669.31;5066383;28;20104;-62
2022/01/03 02:09:08;;;;;;;0.43;0.43;;;;;;;5.66;100.00;98676.19;5065729;28;20037;-68
2022/01/03 02:11:54;;;;;;;0.40;0.40;;;;;;;5.66;100.00;98667.59;5065893;28;20044;-62
2022/01/03 02:14:22;;;;;;;0.35;0.35;;;;;;;5.65;100.00;98669.34;5064963;28;20024;-64
2022/01/03 02:16:49;;;;;;;0.40;0.40;;;;;;;5.63;100.00;98663.38;5065962;28;20055;-63
2022/01/03 02:19:15;;;;;;;0.40;0.40;;;;;;;5.63;100.00;98662.50;5066052;28;20062;-63
2022/01/03 02:21:41;;;;;;;0.40;0.40;;;;;;;5.63;100.00;98663.38;5065839;28;20017;-63
2022/01/03 02:24:07;;;;;;;0.40;0.40;;;;;;;5.61;100.00;98654.81;5065948;28;20111;-63
2022/01/03 02:26:32;;;;;;;0.40;0.40;;;;;;;5.61;100.00;98659.13;5065959;28;20029;-63
2022/01/03 02:28:58;;;;;;;0.40;0.40;;;;;;;5.60;100.00;98655.69;5065940;28;20017;-63
2022/01/03 02:31:24;;;;;;;0.40;0.40;;;;;;;5.59;100.00;98654.00;5065473;28;20013;-64
2022/01/03 02:33:51;;;;;;;0.40;0.40;;;;;;;5.61;100.00;98652.25;5066110;28;20025;-64
2022/01/03 02:36:17;;;;;;;0.32;0.32;;;;;;;5.61;100.00;98653.97;5065678;28;20021;-63
2022/01/03 02:38:43;;;;;;;0.40;0.40;;;;;;;5.62;100.00;98656.53;5065912;28;20032;-64
2022/01/03 02:41:09;;;;;;;0.38;0.38;;;;;;;5.63;100.00;98653.06;5065586;28;20023;-63
2022/01/03 02:43:34;;;;;;;0.40;0.40;;;;;;;5.65;100.00;98641.03;5065624;28;20024;-64
2022/01/03 02:46:00;;;;;;;0.40;0.40;;;;;;;5.65;100.00;98648.75;5065287;28;20056;-64
2022/01/03 02:48:26;;;;;;;0.40;0.40;;;;;;;5.65;100.00;98640.19;5065565;28;20025;-64
2022/01/03 02:50:52;;;;;;;0.30;0.30;;;;;;;5.62;100.00;98635.94;5047296;28;20033;-63
2022/01/03 02:53:19;;;;;;;0.40;0.40;;;;;;;5.62;100.00;98643.66;5065272;28;20025;-64
2022/01/03 02:55:45;;;;;;;0.40;0.40;;;;;;;5.61;100.00;98634.22;5065296;28;20472;-63
2022/01/03 02:58:11;;;;;;;0.40;0.40;;;;;;;5.61;100.00;98643.69;5065418;28;20827;-63
2022/01/03 03:00:48;;;;;;;0.40;0.40;;;;;;;5.63;100.00;98649.63;5065120;28;20380;-62
2022/01/03 03:03:18;;;;;;;0.40;0.40;;;;;;;5.65;100.00;98651.34;5065404;28;20029;-62
2022/01/03 03:05:44;;;;;;;0.40;0.40;;;;;;;5.68;100.00;98645.28;5065347;28;20029;-63
2022/01/03 03:08:11;;;;;;;0.40;0.40;;;;;;;5.69;100.00;98649.53;5064991;28;20029;-63
2022/01/03 03:10:37;;;;;;;0.40;0.40;;;;;;;5.69;100.00;98649.53;5064843;28;20075;-62
2022/01/03 03:13:03;;;;;;;0.40;0.40;;;;;;;5.68;100.00;98635.84;5064876;28;20043;-63
2022/01/03 03:15:28;;;;;;;0.40;0.40;;;;;;;5.72;100.00;98640.94;5065078;28;20020;-62
2022/01/03 03:17:54;;;;;;;0.40;0.40;;;;;;;5.70;100.00;98631.47;5064973;28;20025;-63
2022/01/03 03:20:26;;;;;;;0.40;0.40;;;;;;;5.67;100.00;98628.97;5064854;28;20035;-63
2022/01/03 03:22:52;;;;;;;0.40;0.40;;;;;;;5.69;100.00;98628.94;5064917;28;20114;-62
2022/01/03 03:25:38;;;;;;;0.40;0.40;;;;;;;5.68;100.00;98620.38;5063353;28;20033;-62
2022/01/03 03:28:05;;;;;;;0.30;0.30;;;;;;;5.66;100.00;98627.28;5062959;28;20481;-63
2022/01/03 03:30:34;;;;;;;0.40;0.40;;;;;;;5.64;100.00;98626.44;5063041;28;20029;-61
2022/01/03 03:33:10;;;;;;;0.40;0.40;;;;;;;5.64;100.00;98623.88;5064710;28;20029;-62
2022/01/03 03:35:36;;;;;;;0.40;0.40;;;;;;;5.66;100.00;98629.00;5064663;28;20028;-62
2022/01/03 03:38:02;;;;;;;0.40;0.40;;;;;;;5.65;100.00;98625.59;5064549;28;20091;-62
2022/01/03 03:40:27;;;;;;;0.40;0.40;;;;;;;5.62;100.00;98623.06;5064570;28;20024;-63
2022/01/03 03:42:53;;;;;;;0.40;0.40;;;;;;;5.63;100.00;98619.59;5064396;28;20692;-63
2022/01/03 03:45:19;;;;;;;0.40;0.40;;;;;;;5.61;100.00;98617.94;5064334;28;20043;-62
2022/01/03 03:47:45;;;;;;;0.40;0.40;;;;;;;5.59;100.00;98610.25;5064615;28;20028;-64
2022/01/03 03:50:10;;;;;;;0.40;0.40;;;;;;;5.63;100.00;98613.59;5064277;28;20147;-62
2022/01/03 03:52:36;;;;;;;0.40;0.40;;;;;;;5.66;100.00;98626.41;5064236;28;20460;-62
2022/01/03 03:55:02;;;;;;;0.40;0.40;;;;;;;5.67;100.00;98618.66;5064457;28;20029;-62
2022/01/03 03:57:27;;;;;;;0.40;0.40;;;;;;;5.69;100.00;98622.06;5064190;28;20039;-63
2022/01/03 03:59:52;;;;;;;0.40;0.40;;;;;;;5.69;100.00;98627.22;5064416;28;20120;-63
2022/01/03 04:02:18;;;;;;;0.40;0.40;;;;;;;5.71;100.00;98627.19;5063840;28;20115;-62
2022/01/03 04:04:43;;;;;;;0.40;0.40;;;;;;;5.73;100.00;98622.88;5064196;28;20103;-63
2022/01/03 04:07:09;;;;;;;0.40;0.40;;;;;;;5.76;100.00;98621.97;5063853;28;20013;-62
2022/01/03 04:09:34;;;;;;;0.45;0.45;;;;;;;5.78;100.00;98623.63;5064053;28;20025;-63
2022/01/03 04:11:59;;;;;;;0.50;0.50;;;;;;;5.79;100.00;98611.59;5063577;28;20048;-63
2022/01/03 04:14:25;;;;;;;0.40;0.40;;;;;;;5.79;100.00;98606.47;5063938;28;20080;-63
2022/01/03 04:16:50;;;;;;;0.40;0.40;;;;;;;5.79;100.00;98602.16;5063691;28;20021;-63
2022/01/03 04:19:16;;;;;;;0.40;0.40;;;;;;;5.82;100.00;98596.97;5063860;28;20028;-62
2022/01/03 04:21:41;;;;;;;0.40;0.40;;;;;;;5.83;100.00;98590.09;5063220;28;20028;-63
2022/01/03 04:24:08;;;;;;;0.40;0.40;;;;;;;5.81;100.00;98584.09;5063794;28;20032;-62
2022/01/03 04:26:34;;;;;;;0.40;0.40;;;;;;;5.73;100.00;98570.53;5063672;28;20020;-62
2022/01/03 04:29:00;;;;;;;0.40;0.40;;;;;;;5.78;100.00;98595.28;5063674;28;20253;-65
2022/01/03 04:31:25;;;;;;;0.40;0.40;;;;;;;5.76;100.00;98593.63;5063451;28;20071;-63
2022/01/03 04:33:51;;;;;;;0.40;0.40;;;;;;;5.75;100.00;98587.63;5063648;28;20025;-63
2022/01/03 04:36:17;;;;;;;0.40;0.40;;;;;;;5.71;100.00;98591.16;5063560;28;20017;-62
2022/01/03 04:38:42;;;;;;;0.40;0.40;;;;;;;5.69;100.00;98592.88;5063520;28;20021;-62
2022/01/03 04:41:10;;;;;;;0.40;0.40;;;;;;;5.68;100.00;98591.19;5063338;28;20107;-63
2022/01/03 04:43:35;;;;;;;0.40;0.40;;;;;;;5.67;100.00;98586.94;5063151;28;20503;-62
2022/01/03 04:46:01;;;;;;;0.40;0.40;;;;;;;5.65;100.00;98586.97;5063132;28;20037;-62
2022/01/03 04:48:27;;;;;;;0.40;0.40;;;;;;;5.66;100.00;98578.34;5063226;28;20052;-62
2022/01/03 04:50:53;;;;;;;0.40;0.40;;;;;;;5.63;100.00;98583.56;5062840;28;20028;-62
2022/01/03 04:53:20;;;;;;;0.40;0.40;;;;;;;5.62;100.00;98574.16;5063076;28;20021;-62
2022/01/03 04:55:45;;;;;;;0.40;0.40;;;;;;;5.62;100.00;98568.16;5063411;28;20021;-61
2022/01/03 04:58:11;;;;;;;0.40;0.40;;;;;;;5.60;100.00;98570.75;5063181;28;20055;-62
2022/01/03 05:00:37;;;;;;;0.40;0.40;;;;;;;5.58;100.00;98567.34;5063040;28;20032;-62
2022/01/03 05:03:03;;;;;;;0.40;0.40;;;;;;;5.58;100.00;98564.75;5063022;28;20021;-62
2022/01/03 05:05:28;;;;;;;0.40;0.40;;;;;;;5.58;100.00;98551.91;5062935;28;20110;-62
2022/01/03 05:07:54;;;;;;;0.40;0.40;;;;;;;5.58;100.00;98542.47;5062977;28;20021;-62
2022/01/03 05:10:19;;;;;;;0.40;0.40;;;;;;;5.54;100.00;98538.22;5062901;28;20465;-61
2022/01/03 05:12:45;;;;;;;0.30;0.30;;;;;;;5.57;100.00;98540.75;5062656;28;20057;-62
2022/01/03 05:15:10;;;;;;;0.40;0.40;;;;;;;5.60;100.00;98552.72;5061629;28;20029;-62
2022/01/03 05:17:35;;;;;;;0.40;0.40;;;;;;;5.61;100.00;98553.59;5062782;28;20052;-62
2022/01/03 05:20:01;;;;;;;0.40;0.40;;;;;;;5.59;100.00;98543.31;5062749;28;20032;-62
2022/01/03 05:22:26;;;;;;;0.40;0.40;;;;;;;5.58;100.00;98542.47;5063064;28;20024;-61
2022/01/03 05:24:51;;;;;;;0.40;0.40;;;;;;;5.59;100.00;98538.16;5062718;28;20111;-62
2022/01/03 05:27:17;;;;;;;0.40;0.40;;;;;;;5.60;100.00;98544.13;5062897;28;20029;-61
2022/01/03 05:29:42;;;;;;;0.40;0.40;;;;;;;5.63;100.00;98533.78;5062998;28;20049;-62
2022/01/03 05:32:07;;;;;;;0.40;0.40;;;;;;;5.62;100.00;98527.81;5063185;28;20023;-61
2022/01/03 05:34:33;;;;;;;0.40;0.40;;;;;;;5.62;100.00;98524.38;5066838;28;20040;-62
2022/01/03 05:36:59;;;;;;;0.40;0.40;;;;;;;5.61;100.00;98528.66;5066644;28;20029;-61
2022/01/03 05:39:24;;;;;;;0.40;0.40;;;;;;;5.66;100.00;98534.59;5066641;28;20027;-62
2022/01/03 05:41:49;;;;;;;0.40;0.40;;;;;;;5.68;100.00;98527.69;5066595;28;20094;-61
2022/01/03 05:44:15;;;;;;;0.40;0.40;;;;;;;5.68;100.00;98530.28;5066767;28;20033;-62
2022/01/03 05:46:40;;;;;;;0.40;0.40;;;;;;;5.68;100.00;98527.69;5065059;28;20086;-62
2022/01/03 05:49:08;;;;;;;0.50;0.50;;;;;;;5.68;100.00;98517.41;5066532;28;20024;-62
2022/01/03 05:51:34;;;;;;;0.40;0.40;;;;;;;5.65;100.00;98512.31;5066254;28;20023;-61
2022/01/03 05:54:00;;;;;;;0.50;0.50;;;;;;;5.69;100.00;98513.94;5066387;28;20037;-62
2022/01/03 05:56:26;;;;;;;0.40;0.40;;;;;;;5.68;100.00;98516.53;5066418;28;20215;-62
2022/01/03 05:58:51;;;;;;;0.40;0.40;;;;;;;5.63;100.00;98496.03;5066458;28;20036;-62
2022/01/03 06:01:19;;;;;;;0.40;0.40;;;;;;;5.73;100.00;98511.28;5065900;28;20029;-61
2022/01/03 06:03:44;;;;;;;0.40;0.40;;;;;;;5.72;100.00;98510.44;5066208;28;20025;-62
2022/01/03 06:08:36;;;;;;;0.45;0.45;;;;;;;5.70;100.00;98494.19;5066270;28;20126;-62
2022/01/03 06:11:02;;;;;;;0.30;0.30;;;;;;;5.67;100.00;98507.13;5065647;28;20555;-61
2022/01/03 06:13:28;;;;;;;0.40;0.40;;;;;;;5.65;100.00;98507.16;5066047;28;20048;-62
2022/01/03 06:15:54;;;;;;;0.40;0.40;;;;;;;5.61;100.00;98505.50;5065901;28;20555;-62
2022/01/03 06:18:20;;;;;;;0.40;0.40;;;;;;;5.59;100.00;98509.84;5066050;28;20025;-62
2022/01/03 06:20:46;;;;;;;0.40;0.40;;;;;;;5.59;100.00;98504.69;5065703;28;20128;-62
2022/01/03 06:23:13;;;;;;;0.40;0.40;;;;;;;5.48;100.00;98486.84;5065574;28;20457;-61
2022/01/03 06:25:39;;;;;;;0.50;0.50;;;;;;;5.54;100.00;98498.78;5065776;28;20028;-62
2022/01/03 06:28:07;;;;;;;0.40;0.40;;;;;;;5.52;100.00;98497.94;5065809;28;20112;-62
2022/01/03 06:30:34;;;;;;;0.45;0.45;;;;;;;5.49;100.00;98491.16;5065418;28;20052;-62
2022/01/03 06:32:59;;;;;;;0.40;0.40;;;;;;;5.48;100.00;98494.56;5065545;28;20040;-61
2022/01/03 06:35:25;;;;;;;0.40;0.40;;;;;;;5.49;100.00;98491.16;5065605;28;20021;-61
2022/01/03 06:37:50;;;;;;;0.40;0.40;;;;;;;5.51;100.00;98491.13;5065809;28;20060;-61
2022/01/03 06:40:16;;;;;;;0.50;0.50;;;;;;;5.48;100.00;98486.84;5065400;28;20547;-59
2022/01/03 06:42:41;;;;;;;0.43;0.43;;;;;;;5.52;100.00;98479.94;5065083;28;20040;-61
2022/01/03 06:45:07;;;;;;;0.40;0.40;;;;;;;5.55;100.00;98477.31;5065512;28;20021;-61
2022/01/03 06:47:32;;;;;;;0.40;0.40;;;;;;;5.50;100.00;98455.94;5065220;28;20021;-61
2022/01/03 06:49:57;;;;;;;0.40;0.40;;;;;;;5.53;100.00;98473.91;5065249;28;20032;-60
2022/01/03 06:52:23;;;;;;;0.40;0.40;;;;;;;5.54;100.00;98473.03;5065373;28;20021;-60
2022/01/03 06:54:48;;;;;;;0.40;0.40;;;;;;;5.55;100.00;98477.31;5065472;28;20045;-60
2022/01/03 06:57:14;;;;;;;0.40;0.40;;;;;;;5.54;100.00;98470.47;5065267;28;20040;-60
2022/01/03 06:59:39;;;;;;;0.40;0.40;;;;;;;5.54;100.00;98473.88;5065227;28;20097;-61
2022/01/03 07:02:05;;;;;;;0.40;0.40;;;;;;;5.55;100.00;98485.03;5064827;28;20104;-61
2022/01/03 07:04:31;;;;;;;0.40;0.40;;;;;;;5.55;100.00;98483.31;5065225;28;20074;-60
2022/01/03 07:06:57;;;;;;;0.40;0.40;;;;;;;5.54;100.00;98475.63;5064916;28;20025;-61
2022/01/03 07:09:22;;;;;;;0.40;0.40;;;;;;;5.55;100.00;98475.59;5065140;28;20016;-60
2022/01/03 07:11:47;;;;;;;0.40;0.40;;;;;;;5.56;100.00;98481.56;5064619;28;20107;-61
2022/01/03 07:19:37;;;;;;;0.40;0.40;;;;;;;5.58;100.00;98482.38;5064979;28;20054;-61
2022/01/03 07:22:04;;;;;;;0.40;0.40;;;;;;;5.59;100.00;98473.81;5063772;28;20084;-61
2022/01/03 07:24:35;;;;;;;0.40;0.40;;;;;;;5.61;100.00;98476.34;5065377;28;20032;-60
2022/01/03 07:27:05;;;;;;;0.40;0.40;;;;;;;5.61;100.00;98473.78;5063869;28;20032;-60
2022/01/03 07:29:30;;;;;;;0.40;0.40;;;;;;;5.60;100.00;98472.91;5065120;28;20017;-61
2022/01/03 07:31:56;;;;;;;0.40;0.40;;;;;;;5.56;100.00;98469.53;5064934;28;20535;-61
2022/01/03 07:34:22;;;;;;;0.40;0.40;;;;;;;5.58;100.00;98477.25;5065140;28;20479;-60
2022/01/03 07:36:47;;;;;;;0.40;0.40;;;;;;;5.57;100.00;98478.13;5064761;28;20020;-60
2022/01/03 07:39:12;;;;;;;0.40;0.40;;;;;;;5.56;100.00;98464.41;5065053;28;20021;-60
2022/01/03 07:41:38;;;;;;;0.35;0.35;;;;;;;5.58;100.00;98466.94;5064568;28;20017;-60
2022/01/03 07:44:04;;;;;;;0.40;0.40;;;;;;;5.58;100.00;98460.06;5064754;28;20024;-61
2022/01/03 07:46:29;;;;;;;0.40;0.40;;;;;;;5.62;100.00;98466.03;5064694;28;20027;-61
2022/01/03 07:48:55;;;;;;;0.40;0.40;;;;;;;5.63;100.00;98462.56;5064991;28;20043;-61
2022/01/03 07:51:20;;;;;;;0.40;0.40;;;;;;;5.62;100.00;98454.88;5064626;28;20025;-61
2022/01/03 07:53:45;;;;;;;0.40;0.40;;;;;;;5.64;100.00;98466.81;5064502;28;20089;-61
2022/01/03 07:56:11;;;;;;;0.40;0.40;;;;;;;5.64;100.00;98464.25;5063779;28;20029;-61
2022/01/03 07:58:37;;;;;;;0.50;0.50;;;;;;;5.62;100.00;98470.31;5064575;28;20063;-61
2022/01/03 08:01:04;;;;;;;0.40;0.40;;;;;;;5.62;100.00;98470.31;5064353;28;20025;-61
2022/01/03 08:03:30;;;;;;;0.40;0.40;;;;;;;5.61;100.00;98466.88;5064341;28;20024;-61
2022/01/03 08:05:55;;;;;;;0.40;0.40;;;;;;;5.59;100.00;98458.38;5064410;28;20021;-61
2022/01/03 08:08:21;;;;;;;0.40;0.40;;;;;;;5.57;100.00;98460.09;5064385;28;20029;-61
2022/01/03 08:10:47;;;;;;;0.50;0.50;;;;;;;5.65;100.00;98457.38;5064133;28;20037;-61
2022/01/03 08:13:13;;;;;;;0.40;0.40;;;;;;;5.63;100.00;98462.56;5064296;28;20035;-61
2022/01/03 08:15:39;;;;;;;0.30;0.30;;;;;;;5.61;100.00;98453.19;5064203;28;20365;-61
2022/01/03 08:18:05;;;;;;;0.30;0.30;;;;;;;5.66;100.00;98464.22;5064480;28;20032;-61
2022/01/03 08:20:30;;;;;;;0.40;0.40;;;;;;;5.65;100.00;98468.53;5064237;28;20511;-61
2022/01/03 08:22:55;;;;;;;0.40;0.40;;;;;;;5.67;100.00;98471.91;5064211;28;20057;-61
2022/01/03 08:25:21;;;;;;;0.40;0.40;;;;;;;5.69;100.00;98471.88;5064155;28;20126;-60
2022/01/03 08:27:46;;;;;;;0.40;0.40;;;;;;;5.68;100.00;98459.91;5064053;28;20032;-60
2022/01/03 08:30:12;;;;;;;0.40;0.40;;;;;;;5.71;100.00;98459.84;5063865;28;20028;-60
2022/01/03 08:32:38;;;;;;;0.40;0.40;;;;;;;5.73;100.00;98460.66;5063783;28;20048;-61
2022/01/03 08:35:04;;;;;;;0.40;0.40;;;;;;;5.73;100.00;98452.94;5063923;28;20028;-60
2022/01/03 08:37:29;;;;;;;0.40;0.40;;;;;;;5.73;100.00;98441.78;5063880;28;20028;-61
2022/01/03 08:39:55;;;;;;;0.40;0.40;;;;;;;5.69;100.00;98457.28;5063815;28;20368;-60
2022/01/03 08:42:20;;;;;;;0.40;0.40;;;;;;;5.70;100.00;98448.69;5063741;28;20025;-59
2022/01/03 08:44:46;;;;;;;0.50;0.50;;;;;;;5.72;100.00;98453.78;5064092;28;20048;-62
2022/01/03 08:47:12;;;;;;;0.40;0.40;;;;;;;5.68;100.00;98440.16;5063545;28;20029;-60
2022/01/03 08:49:37;;;;;;;0.40;0.40;;;;;;;5.69;100.00;98446.13;5063850;28;20044;-61
2022/01/03 08:52:05;;;;;;;0.40;0.40;;;;;;;5.72;100.00;98445.25;5063498;28;20324;-61
2022/01/03 08:54:31;;;;;;;0.40;0.40;;;;;;;5.71;100.00;98446.97;5063637;28;20043;-61
2022/01/03 08:56:56;;;;;;;0.40;0.40;;;;;;;5.73;100.00;98446.94;5063395;28;20021;-61
2022/01/03 08:59:21;;;;;;;0.40;0.40;;;;;;;5.76;100.00;98452.00;5063701;28;20028;-60
2022/01/03 09:01:47;;;;;;;0.40;0.40;;;;;;;5.78;100.00;98455.41;5063083;28;20017;-62
2022/01/03 09:04:12;;;;;;;0.40;0.40;;;;;;;5.79;100.00;98451.94;5063280;28;20017;-60
2022/01/03 09:06:38;;;;;;;0.40;0.40;;;;;;;5.81;100.00;98442.47;5063286;28;20052;-61
2022/01/03 09:09:05;;;;;;;0.40;0.40;;;;;;;5.79;100.00;98446.78;5063284;28;20096;-61
2022/01/03 09:11:31;;;;;;;0.40;0.40;;;;;;;5.79;100.00;98439.94;5062913;28;20045;-62
2022/01/03 09:13:56;;;;;;;0.40;0.40;;;;;;;5.78;100.00;98434.81;5063160;28;20082;-61
2022/01/03 09:16:22;;;;;;;0.40;0.40;;;;;;;5.81;100.00;98443.31;5063011;28;20021;-61
2022/01/03 09:18:47;;;;;;;0.40;0.40;;;;;;;5.83;100.00;98438.97;5063275;28;20025;-61
2022/01/03 09:21:13;;;;;;;0.70;0.70;;;;;;;5.86;100.00;98440.66;5063013;28;20016;-61
2022/01/03 09:23:43;;;;;;;0.40;0.40;;;;;;;5.89;100.00;98427.72;5062997;28;20033;-61
2022/01/03 09:28:53;;;;;;;0.40;0.40;;;;;;;5.80;100.00;98413.28;5062906;28;20051;-61
2022/01/03 09:31:27;;;;;;;0.40;0.40;;;;;;;5.87;100.00;98416.59;5062682;28;20037;-61
2022/01/03 09:33:55;;;;;;;0.40;0.40;;;;;;;5.86;100.00;98420.06;5062939;28;20029;-61
2022/01/03 09:36:22;;;;;;;0.40;0.40;;;;;;;5.87;100.00;98421.75;5062866;28;20025;-61
2022/01/03 09:38:47;;;;;;;0.40;0.40;;;;;;;5.88;100.00;98427.75;5063062;28;20045;-61
2022/01/03 09:41:14;;;;;;;0.47;0.47;;;;;;;5.88;100.00;98428.56;5062748;28;20048;-60
2022/01/03 09:43:51;;;;;;;0.30;0.30;;;;;;;5.88;100.00;98428.56;5062686;28;20047;-61
2022/01/03 09:46:25;;;;;;;0.40;0.40;;;;;;;5.86;100.00;98426.94;5062788;28;20029;-61
2022/01/03 09:48:52;;;;;;;0.40;0.40;;;;;;;5.86;100.00;98425.22;5062941;28;20031;-62
2022/01/03 09:51:30;;;;;;;0.40;0.40;;;;;;;5.86;100.00;98427.78;5062805;28;20025;-62
2022/01/03 09:54:02;;;;;;;0.40;0.40;;;;;;;5.87;100.00;98413.16;5062558;28;20020;-62
2022/01/03 09:56:30;;;;;;;0.40;0.40;;;;;;;5.86;100.00;98412.34;5062684;28;20033;-61
2022/01/03 09:58:56;;;;;;;0.40;0.40;;;;;;;5.82;100.00;98405.53;5062598;28;20090;-62
2022/01/03 10:01:22;;;;;;;0.40;0.40;;;;;;;5.85;100.00;98410.63;5062563;28;20044;-62
2022/01/03 10:03:49;;;;;;;0.40;0.40;;;;;;;5.83;100.00;98409.81;5062565;28;20104;-62
2022/01/03 10:06:17;;;;;;;0.40;0.40;;;;;;;5.81;100.00;98420.13;5062458;28;20025;-62
2022/01/03 10:08:43;;;;;;;0.40;0.40;;;;;;;5.81;100.00;98409.00;5061148;28;20156;-61
2022/01/03 10:11:09;;;;;;;0.40;0.40;;;;;;;5.81;100.00;98403.84;5062178;28;20041;-61
2022/01/03 10:13:34;;;;;;;0.40;0.40;;;;;;;5.77;100.00;98397.03;5062366;28;20472;-62
2022/01/03 10:15:59;;;;;;;0.30;0.30;;;;;;;5.82;100.00;98405.53;5062203;28;20024;-62
2022/01/03 10:18:26;;;;;;;0.40;0.40;;;;;;;5.79;100.00;98401.31;5063487;28;20096;-63
2022/01/03 10:20:52;;;;;;;0.40;0.40;;;;;;;5.76;100.00;98396.22;5066078;28;20080;-63
2022/01/03 10:23:18;;;;;;;0.47;0.47;;;;;;;5.78;100.00;98399.59;5065972;28;20032;-63
2022/01/03 10:25:46;;;;;;;0.40;0.40;;;;;;;5.76;100.00;98396.22;5065927;28;20052;-64
2022/01/03 10:28:20;;;;;;;0.30;0.30;;;;;;;5.75;100.00;98399.66;5065799;28;20052;-63
2022/01/03 10:30:46;;;;;;;0.40;0.40;;;;;;;5.77;100.00;98389.31;5065533;28;20021;-63
2022/01/03 10:33:20;;;;;;;0.40;0.40;;;;;;;5.75;100.00;98380.81;5065774;28;20025;-63
2022/01/03 10:35:48;;;;;;;0.40;0.40;;;;;;;5.74;100.00;98379.09;5065754;28;20029;-63
2022/01/03 10:38:30;;;;;;;0.40;0.40;;;;;;;5.75;100.00;98383.38;5065652;28;20029;-63
2022/01/03 10:41:14;;;;;;;0.60;0.60;;;;;;;5.72;100.00;98375.72;5065742;28;20029;-62
2022/01/03 10:43:41;;;;;;;0.40;0.40;;;;;;;5.69;100.00;98372.31;5065451;28;20492;-63
2022/01/03 10:46:27;;;;;;;0.40;0.40;;;;;;;5.68;100.00;98372.34;5065447;28;20036;-62
2022/01/03 10:48:56;;;;;;;0.40;0.40;;;;;;;5.69;100.00;98374.91;5064556;28;20044;-63
2022/01/03 10:51:26;;;;;;;0.43;0.43;;;;;;;5.70;100.00;98375.75;5065356;28;20032;-62
2022/01/03 10:53:54;;;;;;;0.40;0.40;;;;;;;5.74;100.00;98369.66;5065425;28;20427;-62
2022/01/03 10:56:20;;;;;;;0.40;0.40;;;;;;;5.74;100.00;98368.78;5065468;28;20080;-62
2022/01/03 10:58:45;;;;;;;0.40;0.40;;;;;;;5.74;100.00;98366.22;5065330;28;20021;-62
2022/01/03 11:01:22;;;;;;;0.40;0.40;;;;;;;5.70;100.00;98361.13;5065117;28;20021;-62
2022/01/03 11:03:48;;;;;;;0.40;0.40;;;;;;;5.69;100.00;98364.59;5065165;28;20036;-62
2022/01/03 11:06:36;;;;;;;0.40;0.40;;;;;;;5.69;100.00;98363.75;5065249;28;20031;-62
2022/01/03 11:11:52;;;;;;;0.47;0.47;;;;;;;5.68;100.00;98356.91;5064825;28;20060;-62
2022/01/03 11:14:39;;;;;;;0.40;0.40;;;;;;;5.70;100.00;98350.00;5065163;28;20029;-62
2022/01/03 11:17:37;;;;;;;0.40;0.40;;;;;;;5.71;100.00;98356.84;5064787;28;20029;-61
2022/01/03 11:20:03;;;;;;;0.30;0.30;;;;;;;5.74;100.00;98358.50;5031060;28;20097;-62
2022/01/03 11:22:54;;;;;;;0.40;0.40;;;;;;;5.75;100.00;98352.47;5064886;28;20028;-61
2022/01/03 11:25:33;;;;;;;0.50;0.50;;;;;;;5.75;100.00;98343.00;5065045;28;20032;-61
2022/01/03 11:28:00;;;;;;;0.50;0.50;;;;;;;5.73;100.00;98354.22;5064961;28;20021;-63
2022/01/03 11:30:26;;;;;;;0.40;0.40;;;;;;;5.78;100.00;98352.41;5065105;28;20029;-62
2022/01/03 11:32:52;;;;;;;0.40;0.40;;;;;;;5.76;100.00;98347.28;5064861;28;20120;-62
2022/01/03 11:35:17;;;;;;;0.40;0.40;;;;;;;5.74;100.00;98338.75;5065006;28;20025;-61
2022/01/03 11:37:46;;;;;;;0.50;0.50;;;;;;;5.78;100.00;98350.66;5064628;28;20033;-62
2022/01/03 11:40:13;;;;;;;0.38;0.38;;;;;;;5.79;100.00;98339.50;5064748;28;20052;-63
2022/01/03 11:42:41;;;;;;;0.40;0.40;;;;;;;5.83;100.00;98346.28;5064700;28;20151;-62
2022/01/03 11:45:07;;;;;;;0.40;0.40;;;;;;;5.90;100.00;98335.81;5064628;28;20113;-63
2022/01/03 11:47:32;;;;;;;0.35;0.35;;;;;;;5.94;100.00;98333.16;5064696;28;20088;-63
2022/01/03 11:49:58;;;;;;;0.40;0.40;;;;;;;5.98;100.00;98328.78;5064623;28;20040;-60
2022/01/03 11:52:24;;;;;;;0.40;0.40;;;;;;;6.01;100.00;98328.69;5064597;28;20373;-63